sensor_id;sensor_type;location;lat;lon;timestamp;temperature;humidity
51500;DHT22;39101;53.478;6.158;2024-03-23T00:53:20;6.00;99.90
51500;DHT22;39101;53.478;6.158;2024-03-23T00:55:46;5.90;99.90
51500;DHT22;39101;53.478;6.158;2024-03-23T00:58:19;5.90;99.90
51500;DHT22;39101;53.478;6.158;2024-03-23T01:00:44;5.90;99.90
51500;DHT22;39101;53.478;6.158;2024-03-23T01:03:10;5.90;99.90
51500;DHT22;39101;53.478;6.158;2024-03-23T01:05:37;5.80;99.90
51500;DHT22;39101;53.478;6.158;2024-03-23T01:08:03;5.80;99.90
51500;DHT22;39101;53.478;6.158;2024-03-23T01:10:30;5.80;99.90
51500;DHT22;39101;53.478;6.158;2024-03-23T01:12:56;5.70;99.90
51500;DHT22;39101;53.478;6.158;2024-03-23T01:15:21;5.70;99.90
51500;DHT22;39101;53.478;6.158;2024-03-23T01:17:47;5.80;99.90
51500;DHT22;39101;53.478;6.158;2024-03-23T01:20:13;5.80;99.90
51500;DHT22;39101;53.478;6.158;2024-03-23T01:22:38;5.80;99.90
51500;DHT22;39101;53.478;6.158;2024-03-23T01:25:04;5.80;99.90
51500;DHT22;39101;53.478;6.158;2024-03-23T01:27:31;5.90;99.90
51500;DHT22;39101;53.478;6.158;2024-03-23T01:29:57;5.90;99.90
51500;DHT22;39101;53.478;6.158;2024-03-23T01:32:23;5.90;99.90
51500;DHT22;39101;53.478;6.158;2024-03-23T01:34:49;5.90;99.90
51500;DHT22;39101;53.478;6.158;2024-03-23T01:37:14;6.00;99.90
51500;DHT22;39101;53.478;6.158;2024-03-23T01:39:41;6.00;99.90
51500;DHT22;39101;53.478;6.158;2024-03-23T01:42:09;6.00;99.90
51500;DHT22;39101;53.478;6.158;2024-03-23T01:44:34;6.10;99.90
51500;DHT22;39101;53.478;6.158;2024-03-23T01:47:00;6.10;99.90
51500;DHT22;39101;53.478;6.158;2024-03-23T01:49:27;6.10;99.90
51500;DHT22;39101;53.478;6.158;2024-03-23T01:51:53;6.20;99.90
51500;DHT22;39101;53.478;6.158;2024-03-23T01:54:19;6.10;99.90
51500;DHT22;39101;53.478;6.158;2024-03-23T01:56:45;6.20;99.90
51500;DHT22;39101;53.478;6.158;2024-03-23T01:59:13;6.10;99.90
51500;DHT22;39101;53.478;6.158;2024-03-23T02:01:39;6.20;99.90
51500;DHT22;39101;53.478;6.158;2024-03-23T02:04:06;6.20;99.90
51500;DHT22;39101;53.478;6.158;2024-03-23T02:06:32;6.20;99.90
51500;DHT22;39101;53.478;6.158;2024-03-23T02:08:58;6.10;99.90
51500;DHT22;39101;53.478;6.158;2024-03-23T02:11:25;6.20;99.90
51500;DHT22;39101;53.478;6.158;2024-03-23T02:13:50;6.10;99.90
51500;DHT22;39101;53.478;6.158;2024-03-23T02:16:16;6.10;99.90
51500;DHT22;39101;53.478;6.158;2024-03-23T02:18:43;6.10;99.90
51500;DHT22;39101;53.478;6.158;2024-03-23T02:21:09;6.10;99.90
51500;DHT22;39101;53.478;6.158;2024-03-23T02:23:34;6.10;99.90
51500;DHT22;39101;53.478;6.158;2024-03-23T02:26:00;6.10;99.90
51500;DHT22;39101;53.478;6.158;2024-03-23T02:28:26;6.10;99.90
51500;DHT22;39101;53.478;6.158;2024-03-23T02:30:52;6.00;99.90
51500;DHT22;39101;53.478;6.158;2024-03-23T02:33:18;6.00;99.90
51500;DHT22;39101;53.478;6.158;2024-03-23T02:35:45;6.00;99.90
51500;DHT22;39101;53.478;6.158;2024-03-23T02:38:11;6.10;99.90
51500;DHT22;39101;53.478;6.158;2024-03-23T02:40:36;6.10;99.90
51500;DHT22;39101;53.478;6.158;2024-03-23T02:43:05;6.10;99.90
51500;DHT22;39101;53.478;6.158;2024-03-23T02:45:30;6.20;99.90
51500;DHT22;39101;53.478;6.158;2024-03-23T02:47:56;6.20;99.90
51500;DHT22;39101;53.478;6.158;2024-03-23T02:50:23;6.20;99.90
51500;DHT22;39101;53.478;6.158;2024-03-23T02:52:48;6.20;99.90
51500;DHT22;39101;53.478;6.158;2024-03-23T02:55:14;6.30;99.90
51500;DHT22;39101;53.478;6.158;2024-03-23T02:57:41;6.30;99.90
51500;DHT22;39101;53.478;6.158;2024-03-23T03:00:09;6.40;99.90
51500;DHT22;39101;53.478;6.158;2024-03-23T03:02:38;6.40;99.90
51500;DHT22;39101;53.478;6.158;2024-03-23T03:05:05;6.40;99.90
51500;DHT22;39101;53.478;6.158;2024-03-23T03:07:32;6.40;99.90
51500;DHT22;39101;53.478;6.158;2024-03-23T03:09:57;6.50;99.90
51500;DHT22;39101;53.478;6.158;2024-03-23T03:12:23;6.40;99.90
51500;DHT22;39101;53.478;6.158;2024-03-23T03:14:49;6.40;99.90
51500;DHT22;39101;53.478;6.158;2024-03-23T03:17:14;6.40;99.90
51500;DHT22;39101;53.478;6.158;2024-03-23T03:19:40;6.40;99.90
51500;DHT22;39101;53.478;6.158;2024-03-23T03:22:06;6.40;99.90
51500;DHT22;39101;53.478;6.158;2024-03-23T03:24:32;6.40;99.90
51500;DHT22;39101;53.478;6.158;2024-03-23T03:26:57;6.40;99.90
51500;DHT22;39101;53.478;6.158;2024-03-23T03:29:23;6.40;99.90
51500;DHT22;39101;53.478;6.158;2024-03-23T03:31:53;6.40;99.90
51500;DHT22;39101;53.478;6.158;2024-03-23T03:34:18;6.40;99.90
51500;DHT22;39101;53.478;6.158;2024-03-23T03:36:44;6.50;99.90
51500;DHT22;39101;53.478;6.158;2024-03-23T03:39:10;6.50;99.90
51500;DHT22;39101;53.478;6.158;2024-03-23T03:41:35;6.50;99.90
51500;DHT22;39101;53.478;6.158;2024-03-23T03:44:01;6.40;99.90
51500;DHT22;39101;53.478;6.158;2024-03-23T03:46:28;6.40;99.90
51500;DHT22;39101;53.478;6.158;2024-03-23T03:48:57;6.40;99.90
51500;DHT22;39101;53.478;6.158;2024-03-23T03:51:23;6.30;99.90
51500;DHT22;39101;53.478;6.158;2024-03-23T03:53:48;6.40;99.90
51500;DHT22;39101;53.478;6.158;2024-03-23T03:56:14;6.30;99.90
51500;DHT22;39101;53.478;6.158;2024-03-23T03:58:40;6.30;99.90
51500;DHT22;39101;53.478;6.158;2024-03-23T04:01:08;6.30;99.90
51500;DHT22;39101;53.478;6.158;2024-03-23T04:03:34;6.30;99.90
51500;DHT22;39101;53.478;6.158;2024-03-23T04:06:00;6.20;99.90
51500;DHT22;39101;53.478;6.158;2024-03-23T04:08:26;6.20;99.90
51500;DHT22;39101;53.478;6.158;2024-03-23T04:10:53;6.20;99.90
51500;DHT22;39101;53.478;6.158;2024-03-23T04:13:18;6.20;99.90
51500;DHT22;39101;53.478;6.158;2024-03-23T04:15:44;6.20;99.90
51500;DHT22;39101;53.478;6.158;2024-03-23T04:18:10;6.10;99.90
51500;DHT22;39101;53.478;6.158;2024-03-23T04:20:37;6.20;99.90
51500;DHT22;39101;53.478;6.158;2024-03-23T04:23:03;6.20;99.90
51500;DHT22;39101;53.478;6.158;2024-03-23T04:25:28;6.20;99.90
51500;DHT22;39101;53.478;6.158;2024-03-23T04:27:54;6.30;99.90
51500;DHT22;39101;53.478;6.158;2024-03-23T04:30:20;6.30;99.90
51500;DHT22;39101;53.478;6.158;2024-03-23T04:32:49;6.30;99.90
51500;DHT22;39101;53.478;6.158;2024-03-23T04:35:15;6.30;99.90
51500;DHT22;39101;53.478;6.158;2024-03-23T04:37:40;6.30;99.90
51500;DHT22;39101;53.478;6.158;2024-03-23T04:40:07;6.30;99.90
51500;DHT22;39101;53.478;6.158;2024-03-23T04:42:33;6.30;99.90
51500;DHT22;39101;53.478;6.158;2024-03-23T04:45:00;6.30;99.90
51500;DHT22;39101;53.478;6.158;2024-03-23T04:47:25;6.20;99.90
51500;DHT22;39101;53.478;6.158;2024-03-23T04:49:51;6.20;99.90
51500;DHT22;39101;53.478;6.158;2024-03-23T04:52:17;6.10;99.90
51500;DHT22;39101;53.478;6.158;2024-03-23T04:54:43;6.10;99.90
51500;DHT22;39101;53.478;6.158;2024-03-23T04:57:11;6.20;99.90
51500;DHT22;39101;53.478;6.158;2024-03-23T04:59:39;6.20;99.90
51500;DHT22;39101;53.478;6.158;2024-03-23T05:02:05;6.30;99.90
51500;DHT22;39101;53.478;6.158;2024-03-23T05:04:31;6.40;99.90
51500;DHT22;39101;53.478;6.158;2024-03-23T05:06:57;6.40;99.90
51500;DHT22;39101;53.478;6.158;2024-03-23T05:09:23;6.40;99.90
51500;DHT22;39101;53.478;6.158;2024-03-23T05:11:49;6.30;99.90
51500;DHT22;39101;53.478;6.158;2024-03-23T05:14:15;6.30;99.90
51500;DHT22;39101;53.478;6.158;2024-03-23T05:16:42;6.30;99.90
51500;DHT22;39101;53.478;6.158;2024-03-23T05:19:07;6.20;99.90
51500;DHT22;39101;53.478;6.158;2024-03-23T05:21:33;6.30;99.90
51500;DHT22;39101;53.478;6.158;2024-03-23T05:23:59;6.40;99.90
51500;DHT22;39101;53.478;6.158;2024-03-23T05:26:25;6.40;99.90
51500;DHT22;39101;53.478;6.158;2024-03-23T05:28:52;6.40;99.90
51500;DHT22;39101;53.478;6.158;2024-03-23T05:31:25;6.40;99.90
51500;DHT22;39101;53.478;6.158;2024-03-23T05:33:51;6.50;99.90
51500;DHT22;39101;53.478;6.158;2024-03-23T05:36:17;6.50;99.90
51500;DHT22;39101;53.478;6.158;2024-03-23T05:38:43;6.50;99.90
51500;DHT22;39101;53.478;6.158;2024-03-23T05:41:09;6.60;99.90
51500;DHT22;39101;53.478;6.158;2024-03-23T05:43:35;6.60;99.90
51500;DHT22;39101;53.478;6.158;2024-03-23T05:46:01;6.60;99.90
51500;DHT22;39101;53.478;6.158;2024-03-23T05:48:28;6.50;99.90
51500;DHT22;39101;53.478;6.158;2024-03-23T05:50:54;6.50;99.90
51500;DHT22;39101;53.478;6.158;2024-03-23T05:53:20;6.50;99.90
51500;DHT22;39101;53.478;6.158;2024-03-23T05:55:46;6.60;99.90
51500;DHT22;39101;53.478;6.158;2024-03-23T05:58:15;6.70;99.90
51500;DHT22;39101;53.478;6.158;2024-03-23T06:00:42;6.70;99.90
51500;DHT22;39101;53.478;6.158;2024-03-23T06:03:08;6.70;99.90
51500;DHT22;39101;53.478;6.158;2024-03-23T06:05:34;6.70;99.90
51500;DHT22;39101;53.478;6.158;2024-03-23T06:07:59;6.80;99.90
51500;DHT22;39101;53.478;6.158;2024-03-23T06:10:27;6.90;99.90
51500;DHT22;39101;53.478;6.158;2024-03-23T06:12:53;6.90;99.90
51500;DHT22;39101;53.478;6.158;2024-03-23T06:15:19;6.90;99.90
51500;DHT22;39101;53.478;6.158;2024-03-23T06:17:45;6.80;99.90
51500;DHT22;39101;53.478;6.158;2024-03-23T06:20:10;6.80;99.90
51500;DHT22;39101;53.478;6.158;2024-03-23T06:22:38;6.70;99.90
51500;DHT22;39101;53.478;6.158;2024-03-23T06:25:05;6.70;99.90
51500;DHT22;39101;53.478;6.158;2024-03-23T06:27:30;6.70;99.90
51500;DHT22;39101;53.478;6.158;2024-03-23T06:29:58;6.70;99.90
51500;DHT22;39101;53.478;6.158;2024-03-23T06:32:23;6.70;99.90
51500;DHT22;39101;53.478;6.158;2024-03-23T06:34:49;6.90;99.90
51500;DHT22;39101;53.478;6.158;2024-03-23T06:37:16;7.00;99.90
51500;DHT22;39101;53.478;6.158;2024-03-23T06:39:42;7.10;99.90
51500;DHT22;39101;53.478;6.158;2024-03-23T06:42:08;7.00;99.90
51500;DHT22;39101;53.478;6.158;2024-03-23T06:44:34;7.00;99.90
51500;DHT22;39101;53.478;6.158;2024-03-23T06:47:00;7.10;99.90
51500;DHT22;39101;53.478;6.158;2024-03-23T06:49:26;7.10;99.90
51500;DHT22;39101;53.478;6.158;2024-03-23T06:51:53;7.00;99.90
51500;DHT22;39101;53.478;6.158;2024-03-23T06:54:20;7.00;99.90
51500;DHT22;39101;53.478;6.158;2024-03-23T06:56:46;7.00;99.90
51500;DHT22;39101;53.478;6.158;2024-03-23T06:59:12;7.00;99.90
51500;DHT22;39101;53.478;6.158;2024-03-23T07:01:38;7.00;99.90
51500;DHT22;39101;53.478;6.158;2024-03-23T07:04:04;7.10;99.90
51500;DHT22;39101;53.478;6.158;2024-03-23T07:06:33;7.20;99.90
51500;DHT22;39101;53.478;6.158;2024-03-23T07:09:00;7.10;99.90
51500;DHT22;39101;53.478;6.158;2024-03-23T07:11:25;7.20;99.90
51500;DHT22;39101;53.478;6.158;2024-03-23T07:13:56;7.20;99.90
51500;DHT22;39101;53.478;6.158;2024-03-23T07:16:22;7.20;99.90
51500;DHT22;39101;53.478;6.158;2024-03-23T07:18:50;7.10;99.90
51500;DHT22;39101;53.478;6.158;2024-03-23T07:21:15;7.20;99.90
51500;DHT22;39101;53.478;6.158;2024-03-23T07:23:44;7.30;99.90
51500;DHT22;39101;53.478;6.158;2024-03-23T07:26:15;7.40;99.90
51500;DHT22;39101;53.478;6.158;2024-03-23T07:28:40;7.40;99.90
51500;DHT22;39101;53.478;6.158;2024-03-23T07:31:12;7.40;99.90
51500;DHT22;39101;53.478;6.158;2024-03-23T07:33:48;7.60;99.90
51500;DHT22;39101;53.478;6.158;2024-03-23T07:36:14;7.70;99.90
51500;DHT22;39101;53.478;6.158;2024-03-23T07:38:42;7.70;99.90
51500;DHT22;39101;53.478;6.158;2024-03-23T07:41:10;7.70;99.90
51500;DHT22;39101;53.478;6.158;2024-03-23T07:43:38;7.50;99.90
51500;DHT22;39101;53.478;6.158;2024-03-23T07:46:04;7.70;99.90
51500;DHT22;39101;53.478;6.158;2024-03-23T07:48:31;7.60;99.90
51500;DHT22;39101;53.478;6.158;2024-03-23T07:51:08;7.80;99.90
51500;DHT22;39101;53.478;6.158;2024-03-23T07:53:35;8.00;99.90
51500;DHT22;39101;53.478;6.158;2024-03-23T07:56:07;7.90;99.90
51500;DHT22;39101;53.478;6.158;2024-03-23T07:58:34;7.70;99.90
51500;DHT22;39101;53.478;6.158;2024-03-23T08:01:06;7.50;99.90
51500;DHT22;39101;53.478;6.158;2024-03-23T08:03:55;7.30;99.90
51500;DHT22;39101;53.478;6.158;2024-03-23T08:06:21;7.30;99.90
51500;DHT22;39101;53.478;6.158;2024-03-23T08:09:09;7.30;99.90
51500;DHT22;39101;53.478;6.158;2024-03-23T08:11:35;7.50;99.90
51500;DHT22;39101;53.478;6.158;2024-03-23T08:14:07;7.60;99.90
51500;DHT22;39101;53.478;6.158;2024-03-23T08:16:36;7.70;99.90
51500;DHT22;39101;53.478;6.158;2024-03-23T08:19:08;7.90;99.90
51500;DHT22;39101;53.478;6.158;2024-03-23T08:21:34;8.00;99.90
51500;DHT22;39101;53.478;6.158;2024-03-23T08:24:01;8.10;99.90
51500;DHT22;39101;53.478;6.158;2024-03-23T08:26:27;8.10;99.90
51500;DHT22;39101;53.478;6.158;2024-03-23T08:28:55;8.10;99.90
51500;DHT22;39101;53.478;6.158;2024-03-23T08:31:21;8.10;99.90
51500;DHT22;39101;53.478;6.158;2024-03-23T08:33:47;8.00;99.90
51500;DHT22;39101;53.478;6.158;2024-03-23T08:36:13;8.00;99.90
51500;DHT22;39101;53.478;6.158;2024-03-23T08:38:40;7.80;99.90
51500;DHT22;39101;53.478;6.158;2024-03-23T08:41:25;7.70;99.90
51500;DHT22;39101;53.478;6.158;2024-03-23T08:43:51;7.70;99.90
51500;DHT22;39101;53.478;6.158;2024-03-23T08:46:18;7.60;99.90
51500;DHT22;39101;53.478;6.158;2024-03-23T08:48:46;7.60;99.90
51500;DHT22;39101;53.478;6.158;2024-03-23T08:51:15;7.50;99.90
51500;DHT22;39101;53.478;6.158;2024-03-23T08:53:45;7.50;99.90
51500;DHT22;39101;53.478;6.158;2024-03-23T08:56:11;7.60;99.90
51500;DHT22;39101;53.478;6.158;2024-03-23T08:58:38;7.50;99.90
51500;DHT22;39101;53.478;6.158;2024-03-23T09:03:36;7.70;99.90
51500;DHT22;39101;53.478;6.158;2024-03-23T09:06:13;7.60;99.90
51500;DHT22;39101;53.478;6.158;2024-03-23T09:08:45;7.50;99.90
51500;DHT22;39101;53.478;6.158;2024-03-23T09:11:12;7.80;99.90
51500;DHT22;39101;53.478;6.158;2024-03-23T09:13:40;7.90;99.90
51500;DHT22;39101;53.478;6.158;2024-03-23T09:16:07;8.20;99.90
51500;DHT22;39101;53.478;6.158;2024-03-23T09:18:38;8.30;99.90
51500;DHT22;39101;53.478;6.158;2024-03-23T09:21:10;8.20;99.90
51500;DHT22;39101;53.478;6.158;2024-03-23T09:23:38;8.10;99.90
51500;DHT22;39101;53.478;6.158;2024-03-23T09:26:04;8.00;99.90
51500;DHT22;39101;53.478;6.158;2024-03-23T09:28:31;7.80;99.90
51500;DHT22;39101;53.478;6.158;2024-03-23T09:31:07;7.80;99.90
51500;DHT22;39101;53.478;6.158;2024-03-23T09:33:36;7.70;99.90
51500;DHT22;39101;53.478;6.158;2024-03-23T09:36:05;7.60;99.90
51500;DHT22;39101;53.478;6.158;2024-03-23T09:38:32;7.80;99.90
51500;DHT22;39101;53.478;6.158;2024-03-23T09:40:58;8.00;99.90
51500;DHT22;39101;53.478;6.158;2024-03-23T09:43:26;7.90;99.90
51500;DHT22;39101;53.478;6.158;2024-03-23T09:45:53;7.90;99.90
51500;DHT22;39101;53.478;6.158;2024-03-23T09:48:19;8.00;99.90
51500;DHT22;39101;53.478;6.158;2024-03-23T09:50:46;8.30;99.90
51500;DHT22;39101;53.478;6.158;2024-03-23T09:53:13;8.50;99.90
51500;DHT22;39101;53.478;6.158;2024-03-23T09:55:43;8.40;99.90
51500;DHT22;39101;53.478;6.158;2024-03-23T09:58:13;8.00;99.90
51500;DHT22;39101;53.478;6.158;2024-03-23T10:00:39;7.30;99.90
51500;DHT22;39101;53.478;6.158;2024-03-23T10:03:08;7.00;99.90
51500;DHT22;39101;53.478;6.158;2024-03-23T10:05:37;6.90;99.90
51500;DHT22;39101;53.478;6.158;2024-03-23T10:08:21;7.00;99.90
51500;DHT22;39101;53.478;6.158;2024-03-23T10:10:48;7.10;99.90
51500;DHT22;39101;53.478;6.158;2024-03-23T10:13:27;7.30;99.90
51500;DHT22;39101;53.478;6.158;2024-03-23T10:15:56;7.50;99.90
51500;DHT22;39101;53.478;6.158;2024-03-23T10:18:23;7.60;99.90
51500;DHT22;39101;53.478;6.158;2024-03-23T10:20:54;7.60;99.90
51500;DHT22;39101;53.478;6.158;2024-03-23T10:23:35;7.70;99.90
51500;DHT22;39101;53.478;6.158;2024-03-23T10:26:23;7.70;99.90
51500;DHT22;39101;53.478;6.158;2024-03-23T10:31:20;7.60;99.90
51500;DHT22;39101;53.478;6.158;2024-03-23T10:33:49;7.80;99.90
51500;DHT22;39101;53.478;6.158;2024-03-23T10:36:15;8.00;99.90
51500;DHT22;39101;53.478;6.158;2024-03-23T10:38:42;8.20;99.90
51500;DHT22;39101;53.478;6.158;2024-03-23T10:41:11;8.30;99.90
51500;DHT22;39101;53.478;6.158;2024-03-23T10:43:38;8.30;99.90
51500;DHT22;39101;53.478;6.158;2024-03-23T10:46:04;8.20;99.90
51500;DHT22;39101;53.478;6.158;2024-03-23T10:48:32;8.10;99.90
51500;DHT22;39101;53.478;6.158;2024-03-23T10:50:58;8.30;99.90
51500;DHT22;39101;53.478;6.158;2024-03-23T10:53:26;8.40;99.90
51500;DHT22;39101;53.478;6.158;2024-03-23T10:56:33;8.10;99.90
51500;DHT22;39101;53.478;6.158;2024-03-23T10:59:20;8.20;99.90
51500;DHT22;39101;53.478;6.158;2024-03-23T11:01:59;8.00;99.90
51500;DHT22;39101;53.478;6.158;2024-03-23T11:04:44;7.70;99.90
51500;DHT22;39101;53.478;6.158;2024-03-23T11:07:30;7.70;99.90
51500;DHT22;39101;53.478;6.158;2024-03-23T11:10:01;7.60;99.90
51500;DHT22;39101;53.478;6.158;2024-03-23T11:12:29;7.70;99.90
51500;DHT22;39101;53.478;6.158;2024-03-23T11:15:06;7.70;99.90
51500;DHT22;39101;53.478;6.158;2024-03-23T11:17:36;7.80;99.90
51500;DHT22;39101;53.478;6.158;2024-03-23T11:20:04;7.90;99.90
51500;DHT22;39101;53.478;6.158;2024-03-23T11:22:47;7.70;99.90
51500;DHT22;39101;53.478;6.158;2024-03-23T11:25:23;7.60;99.90
51500;DHT22;39101;53.478;6.158;2024-03-23T11:27:54;7.60;99.90
51500;DHT22;39101;53.478;6.158;2024-03-23T11:30:25;7.50;99.90
51500;DHT22;39101;53.478;6.158;2024-03-23T11:32:55;7.40;99.90
51500;DHT22;39101;53.478;6.158;2024-03-23T11:35:36;7.30;99.90
51500;DHT22;39101;53.478;6.158;2024-03-23T11:38:13;7.10;99.90
51500;DHT22;39101;53.478;6.158;2024-03-23T11:40:53;7.10;99.90
51500;DHT22;39101;53.478;6.158;2024-03-23T11:43:20;7.20;99.90
51500;DHT22;39101;53.478;6.158;2024-03-23T11:45:53;7.40;99.90
51500;DHT22;39101;53.478;6.158;2024-03-23T11:48:22;7.80;99.90
51500;DHT22;39101;53.478;6.158;2024-03-23T11:50:50;8.10;99.90
51500;DHT22;39101;53.478;6.158;2024-03-23T11:53:17;8.20;99.90
51500;DHT22;39101;53.478;6.158;2024-03-23T11:55:53;8.10;99.90
51500;DHT22;39101;53.478;6.158;2024-03-23T11:58:21;8.40;99.90
51500;DHT22;39101;53.478;6.158;2024-03-23T12:00:55;8.50;99.90
51500;DHT22;39101;53.478;6.158;2024-03-23T12:03:23;8.40;99.90
51500;DHT22;39101;53.478;6.158;2024-03-23T12:05:57;8.40;99.90
51500;DHT22;39101;53.478;6.158;2024-03-23T12:11:16;8.20;99.90
51500;DHT22;39101;53.478;6.158;2024-03-23T12:13:43;8.20;99.90
51500;DHT22;39101;53.478;6.158;2024-03-23T12:16:21;8.20;99.90
51500;DHT22;39101;53.478;6.158;2024-03-23T12:18:51;8.20;99.90
51500;DHT22;39101;53.478;6.158;2024-03-23T12:21:17;8.40;99.90
51500;DHT22;39101;53.478;6.158;2024-03-23T12:23:44;8.50;99.90
51500;DHT22;39101;53.478;6.158;2024-03-23T12:26:12;8.60;99.90
51500;DHT22;39101;53.478;6.158;2024-03-23T12:28:38;8.30;99.90
51500;DHT22;39101;53.478;6.158;2024-03-23T12:31:05;8.40;99.90
51500;DHT22;39101;53.478;6.158;2024-03-23T12:33:31;8.50;99.90
51500;DHT22;39101;53.478;6.158;2024-03-23T12:35:57;8.40;99.90
51500;DHT22;39101;53.478;6.158;2024-03-23T12:38:24;8.30;99.90
51500;DHT22;39101;53.478;6.158;2024-03-23T12:40:51;8.20;99.90
51500;DHT22;39101;53.478;6.158;2024-03-23T12:43:18;8.10;99.90
51500;DHT22;39101;53.478;6.158;2024-03-23T12:45:48;8.10;99.90
51500;DHT22;39101;53.478;6.158;2024-03-23T12:48:14;8.00;99.90
51500;DHT22;39101;53.478;6.158;2024-03-23T12:50:39;8.10;99.90
51500;DHT22;39101;53.478;6.158;2024-03-23T12:53:06;8.30;99.90
51500;DHT22;39101;53.478;6.158;2024-03-23T12:55:32;8.30;99.90
51500;DHT22;39101;53.478;6.158;2024-03-23T12:58:00;8.20;99.90
51500;DHT22;39101;53.478;6.158;2024-03-23T13:00:25;8.20;99.90
51500;DHT22;39101;53.478;6.158;2024-03-23T13:02:51;8.10;99.90
51500;DHT22;39101;53.478;6.158;2024-03-23T13:05:17;8.10;99.90
51500;DHT22;39101;53.478;6.158;2024-03-23T13:07:42;8.30;99.90
51500;DHT22;39101;53.478;6.158;2024-03-23T13:10:08;8.30;99.90
51500;DHT22;39101;53.478;6.158;2024-03-23T13:12:35;8.30;99.90
51500;DHT22;39101;53.478;6.158;2024-03-23T13:15:03;8.30;99.90
51500;DHT22;39101;53.478;6.158;2024-03-23T13:17:30;8.20;99.90
51500;DHT22;39101;53.478;6.158;2024-03-23T13:19:56;8.30;99.90
51500;DHT22;39101;53.478;6.158;2024-03-23T13:22:23;8.30;99.90
51500;DHT22;39101;53.478;6.158;2024-03-23T13:24:48;8.50;99.90
51500;DHT22;39101;53.478;6.158;2024-03-23T13:27:14;8.50;99.90
51500;DHT22;39101;53.478;6.158;2024-03-23T13:29:40;8.50;99.90
51500;DHT22;39101;53.478;6.158;2024-03-23T13:32:06;8.50;99.90
51500;DHT22;39101;53.478;6.158;2024-03-23T13:34:32;8.50;99.90
51500;DHT22;39101;53.478;6.158;2024-03-23T13:37:01;8.60;99.90
51500;DHT22;39101;53.478;6.158;2024-03-23T13:39:28;8.80;99.90
51500;DHT22;39101;53.478;6.158;2024-03-23T13:41:54;8.70;99.90
51500;DHT22;39101;53.478;6.158;2024-03-23T13:44:21;8.60;99.90
51500;DHT22;39101;53.478;6.158;2024-03-23T13:46:47;8.50;99.90
51500;DHT22;39101;53.478;6.158;2024-03-23T13:49:29;8.40;99.90
51500;DHT22;39101;53.478;6.158;2024-03-23T13:51:57;8.40;99.90
51500;DHT22;39101;53.478;6.158;2024-03-23T13:54:28;8.20;99.90
51500;DHT22;39101;53.478;6.158;2024-03-23T13:56:54;8.10;99.90
51500;DHT22;39101;53.478;6.158;2024-03-23T13:59:21;8.10;99.90
51500;DHT22;39101;53.478;6.158;2024-03-23T14:01:48;8.30;99.90
51500;DHT22;39101;53.478;6.158;2024-03-23T14:04:15;8.40;99.90
51500;DHT22;39101;53.478;6.158;2024-03-23T14:06:45;8.40;99.90
51500;DHT22;39101;53.478;6.158;2024-03-23T14:09:14;8.50;99.90
51500;DHT22;39101;53.478;6.158;2024-03-23T14:11:44;8.60;99.90
51500;DHT22;39101;53.478;6.158;2024-03-23T14:14:10;8.60;99.90
51500;DHT22;39101;53.478;6.158;2024-03-23T14:16:36;8.70;99.90
51500;DHT22;39101;53.478;6.158;2024-03-23T14:19:01;8.70;99.90
51500;DHT22;39101;53.478;6.158;2024-03-23T14:21:29;8.50;99.90
51500;DHT22;39101;53.478;6.158;2024-03-23T14:23:54;8.60;99.90
51500;DHT22;39101;53.478;6.158;2024-03-23T14:26:20;8.60;99.90
51500;DHT22;39101;53.478;6.158;2024-03-23T14:28:46;8.50;99.90
51500;DHT22;39101;53.478;6.158;2024-03-23T14:31:12;8.60;99.90
51500;DHT22;39101;53.478;6.158;2024-03-23T14:33:38;8.70;99.90
51500;DHT22;39101;53.478;6.158;2024-03-23T14:36:06;8.70;99.90
51500;DHT22;39101;53.478;6.158;2024-03-23T14:38:34;8.50;99.90
51500;DHT22;39101;53.478;6.158;2024-03-23T14:41:00;8.50;99.90
51500;DHT22;39101;53.478;6.158;2024-03-23T14:43:28;8.50;99.90
51500;DHT22;39101;53.478;6.158;2024-03-23T14:46:21;8.70;99.90
51500;DHT22;39101;53.478;6.158;2024-03-23T14:48:48;8.50;99.90
51500;DHT22;39101;53.478;6.158;2024-03-23T14:51:14;8.60;99.90
51500;DHT22;39101;53.478;6.158;2024-03-23T14:53:41;8.80;99.90
51500;DHT22;39101;53.478;6.158;2024-03-23T14:56:08;9.00;99.90
51500;DHT22;39101;53.478;6.158;2024-03-23T14:58:40;9.00;99.90
51500;DHT22;39101;53.478;6.158;2024-03-23T15:01:07;8.90;99.90
51500;DHT22;39101;53.478;6.158;2024-03-23T15:03:37;8.80;99.90
51500;DHT22;39101;53.478;6.158;2024-03-23T15:06:05;8.60;99.90
51500;DHT22;39101;53.478;6.158;2024-03-23T15:08:31;8.50;99.90
51500;DHT22;39101;53.478;6.158;2024-03-23T15:11:03;8.40;99.90
51500;DHT22;39101;53.478;6.158;2024-03-23T15:13:36;8.30;99.90
51500;DHT22;39101;53.478;6.158;2024-03-23T15:16:02;8.10;99.90
51500;DHT22;39101;53.478;6.158;2024-03-23T15:18:34;8.00;99.90
51500;DHT22;39101;53.478;6.158;2024-03-23T15:21:03;8.00;99.90
51500;DHT22;39101;53.478;6.158;2024-03-23T15:23:31;7.80;99.90
51500;DHT22;39101;53.478;6.158;2024-03-23T15:25:58;7.60;99.90
51500;DHT22;39101;53.478;6.158;2024-03-23T15:28:24;7.80;99.90
51500;DHT22;39101;53.478;6.158;2024-03-23T15:31:10;7.70;99.90
51500;DHT22;39101;53.478;6.158;2024-03-23T15:33:36;8.10;99.90
51500;DHT22;39101;53.478;6.158;2024-03-23T15:36:05;8.30;99.90
51500;DHT22;39101;53.478;6.158;2024-03-23T15:38:31;8.30;99.90
51500;DHT22;39101;53.478;6.158;2024-03-23T15:40:58;8.10;99.90
51500;DHT22;39101;53.478;6.158;2024-03-23T15:43:25;8.00;99.90
51500;DHT22;39101;53.478;6.158;2024-03-23T15:45:56;8.40;99.90
51500;DHT22;39101;53.478;6.158;2024-03-23T15:48:22;8.60;99.90
51500;DHT22;39101;53.478;6.158;2024-03-23T15:50:57;8.60;99.90
51500;DHT22;39101;53.478;6.158;2024-03-23T15:53:26;8.90;99.90
51500;DHT22;39101;53.478;6.158;2024-03-23T15:55:59;9.30;99.90
51500;DHT22;39101;53.478;6.158;2024-03-23T15:58:27;9.60;99.90
51500;DHT22;39101;53.478;6.158;2024-03-23T16:00:57;9.70;99.90
51500;DHT22;39101;53.478;6.158;2024-03-23T16:03:23;9.80;99.90
51500;DHT22;39101;53.478;6.158;2024-03-23T16:05:53;10.10;99.90
51500;DHT22;39101;53.478;6.158;2024-03-23T16:08:19;10.20;99.90
51500;DHT22;39101;53.478;6.158;2024-03-23T16:10:45;9.90;99.90
51500;DHT22;39101;53.478;6.158;2024-03-23T16:13:11;9.40;99.90
51500;DHT22;39101;53.478;6.158;2024-03-23T16:15:37;9.30;99.90
51500;DHT22;39101;53.478;6.158;2024-03-23T16:18:03;9.20;99.90
51500;DHT22;39101;53.478;6.158;2024-03-23T16:20:29;8.90;99.90
51500;DHT22;39101;53.478;6.158;2024-03-23T16:22:56;8.70;99.90
51500;DHT22;39101;53.478;6.158;2024-03-23T16:25:21;8.70;99.90
51500;DHT22;39101;53.478;6.158;2024-03-23T16:27:47;9.10;99.90
51500;DHT22;39101;53.478;6.158;2024-03-23T16:30:13;9.40;99.90
51500;DHT22;39101;53.478;6.158;2024-03-23T16:32:39;9.40;99.90
51500;DHT22;39101;53.478;6.158;2024-03-23T16:35:05;9.50;99.90
51500;DHT22;39101;53.478;6.158;2024-03-23T16:37:31;9.50;99.90
51500;DHT22;39101;53.478;6.158;2024-03-23T16:39:57;9.80;99.90
51500;DHT22;39101;53.478;6.158;2024-03-23T16:42:22;9.50;99.90
51500;DHT22;39101;53.478;6.158;2024-03-23T16:44:48;9.70;99.90
51500;DHT22;39101;53.478;6.158;2024-03-23T16:47:15;9.70;99.90
51500;DHT22;39101;53.478;6.158;2024-03-23T16:49:41;9.50;99.90